Time;durP1;ratioP1;P1;durP2;ratioP2;P2;SDS_P1;SDS_P2;PMS_P1;PMS_P2;Temp;Humidity;BMP_temperature;BMP_pressure;BME280_temperature;BME280_humidity;BME280_pressure;Samples;Min_cycle;Max_cycle;Signal;HPM_P1;HPM_P2
2021/09/19 00:01:56;;;;;;;13.00;11.57;;;14.90;99.90;;;;;;5086201;28;20452;-79
2021/09/19 00:04:23;;;;;;;12.87;11.57;;;14.90;99.90;;;;;;5079905;28;20920;-79
2021/09/19 00:06:49;;;;;;;13.30;11.70;;;14.80;99.90;;;;;;5081913;28;20517;-79
2021/09/19 00:09:16;;;;;;;15.43;11.97;;;14.70;99.90;;;;;;5095801;28;21022;-78
2021/09/19 00:11:44;;;;;;;14.13;12.63;;;14.70;99.90;;;;;;5075184;28;20444;-79
2021/09/19 00:14:13;;;;;;;15.80;12.23;;;14.70;99.90;;;;;;5077003;28;20549;-78
2021/09/19 00:16:40;;;;;;;14.30;11.50;;;14.70;99.90;;;;;;5077387;28;20426;-78
2021/09/19 00:19:07;;;;;;;14.13;12.10;;;14.70;99.90;;;;;;5088729;28;20478;-78
2021/09/19 00:21:33;;;;;;;14.30;12.30;;;14.60;99.90;;;;;;5090521;28;20508;-78
2021/09/19 00:24:00;;;;;;;13.60;10.90;;;14.60;99.90;;;;;;5077501;28;20505;-79
2021/09/19 00:26:27;;;;;;;15.37;11.93;;;14.60;99.90;;;;;;5077042;28;20407;-79
2021/09/19 00:28:54;;;;;;;12.50;11.20;;;14.60;99.90;;;;;;5076706;28;21017;-79
2021/09/19 00:31:22;;;;;;;15.60;12.10;;;14.60;99.90;;;;;;5089634;28;20494;-80
2021/09/19 00:33:49;;;;;;;14.57;12.23;;;14.50;99.90;;;;;;5083156;28;20485;-77
2021/09/19 00:36:16;;;;;;;13.07;11.67;;;14.40;99.90;;;;;;5088824;28;20869;-79
2021/09/19 00:38:43;;;;;;;14.00;11.40;;;14.40;99.90;;;;;;5096331;28;20465;-80
2021/09/19 00:41:09;;;;;;;17.00;12.73;;;14.40;99.90;;;;;;5090763;28;20421;-79
2021/09/19 00:43:36;;;;;;;12.40;11.10;;;14.40;99.90;;;;;;5079530;28;20525;-79
2021/09/19 00:46:03;;;;;;;16.03;12.40;;;14.30;99.90;;;;;;5080296;28;20418;-78
2021/09/19 00:48:31;;;;;;;14.70;12.33;;;14.30;99.90;;;;;;5080607;28;20478;-79
2021/09/19 00:50:58;;;;;;;15.17;13.10;;;14.20;99.90;;;;;;5093663;28;20566;-80
2021/09/19 00:53:26;;;;;;;18.57;13.63;;;14.20;99.90;;;;;;5077944;28;20912;-80
2021/09/19 00:55:57;;;;;;;15.40;13.43;;;14.20;99.90;;;;;;5091352;28;20462;-78
2021/09/19 00:58:24;;;;;;;17.00;13.17;;;14.30;99.90;;;;;;5101385;28;20445;-80
2021/09/19 01:00:52;;;;;;;15.70;12.73;;;14.20;99.90;;;;;;5093552;28;20457;-80
2021/09/19 01:03:19;;;;;;;14.43;11.50;;;14.20;99.90;;;;;;5095246;28;20418;-80
2021/09/19 01:05:48;;;;;;;14.87;11.63;;;14.20;99.90;;;;;;5098082;28;20425;-79
2021/09/19 01:08:16;;;;;;;16.50;13.70;;;14.30;99.90;;;;;;5091105;28;20553;-78
2021/09/19 01:10:43;;;;;;;16.40;11.83;;;14.40;99.90;;;;;;5094332;28;20450;-78
2021/09/19 01:13:11;;;;;;;12.67;11.33;;;14.40;99.90;;;;;;5087643;28;20545;-78
2021/09/19 01:15:38;;;;;;;13.67;11.30;;;14.30;99.90;;;;;;5087055;28;20500;-79
2021/09/19 01:18:07;;;;;;;12.90;11.20;;;14.30;99.90;;;;;;5100048;28;20959;-80
2021/09/19 01:20:35;;;;;;;15.87;12.27;;;14.40;99.90;;;;;;5092694;28;20479;-79
2021/09/19 01:23:09;;;;;;;16.10;12.07;;;14.30;99.90;;;;;;5081364;28;20940;-79
2021/09/19 01:25:38;;;;;;;19.63;12.40;;;14.30;99.90;;;;;;5096126;28;20425;-78
2021/09/19 01:28:06;;;;;;;18.43;11.83;;;14.20;99.90;;;;;;5090249;28;20525;-78
2021/09/19 01:30:35;;;;;;;15.63;12.00;;;14.20;99.90;;;;;;5089050;28;20514;-79
2021/09/19 01:33:05;;;;;;;13.30;11.87;;;14.20;99.90;;;;;;5098544;28;20436;-79
2021/09/19 01:35:32;;;;;;;14.90;12.20;;;14.20;99.90;;;;;;5099816;28;20449;-78
2021/09/19 01:38:00;;;;;;;13.10;11.40;;;14.20;99.90;;;;;;5103320;28;20512;-77
2021/09/19 01:40:27;;;;;;;14.47;11.60;;;14.20;99.90;;;;;;5098101;28;20507;-78
2021/09/19 01:42:56;;;;;;;13.80;12.00;;;14.10;99.90;;;;;;5075483;28;20451;-79
2021/09/19 01:45:23;;;;;;;12.50;11.20;;;14.10;99.90;;;;;;5078267;28;20434;-79
2021/09/19 01:47:51;;;;;;;14.60;12.03;;;14.00;99.90;;;;;;5077993;28;20436;-80
2021/09/19 01:50:20;;;;;;;12.70;11.30;;;14.00;99.90;;;;;;5079912;28;20470;-78
2021/09/19 01:52:47;;;;;;;15.70;12.20;;;14.00;99.90;;;;;;5078478;28;20456;-79
2021/09/19 01:55:14;;;;;;;13.73;11.70;;;13.90;99.90;;;;;;5086118;28;20457;-79
2021/09/19 01:57:41;;;;;;;12.80;10.53;;;13.90;99.90;;;;;;5081339;28;20479;-79
2021/09/19 02:00:10;;;;;;;12.40;10.73;;;13.90;99.90;;;;;;5079831;28;20527;-78
2021/09/19 02:02:38;;;;;;;13.27;10.93;;;13.90;99.90;;;;;;5098609;28;20482;-78
2021/09/19 02:05:07;;;;;;;13.87;11.10;;;13.90;99.90;;;;;;5106275;28;20429;-78
2021/09/19 02:07:36;;;;;;;13.47;10.63;;;13.90;99.90;;;;;;5109430;28;20422;-79
2021/09/19 02:10:04;;;;;;;13.70;11.50;;;13.90;99.90;;;;;;5102865;28;20425;-78
2021/09/19 02:12:31;;;;;;;13.03;10.50;;;13.80;99.90;;;;;;5086704;28;20884;-79
2021/09/19 02:14:58;;;;;;;12.53;9.93;;;13.80;99.90;;;;;;5089292;28;20672;-77
2021/09/19 02:17:26;;;;;;;14.27;10.40;;;13.80;99.90;;;;;;5096456;28;20822;-81
2021/09/19 02:19:53;;;;;;;14.47;10.87;;;13.80;99.90;;;;;;5096017;28;20487;-79
2021/09/19 02:22:20;;;;;;;12.83;10.33;;;13.80;99.90;;;;;;5088848;28;20450;-79
2021/09/19 02:24:47;;;;;;;12.10;10.03;;;13.90;99.90;;;;;;5091082;28;20530;-79
2021/09/19 02:27:14;;;;;;;14.10;10.43;;;13.90;99.90;;;;;;5078359;28;20430;-79
2021/09/19 02:29:40;;;;;;;12.80;10.63;;;13.90;99.90;;;;;;5082993;28;20546;-77
2021/09/19 02:32:07;;;;;;;13.87;11.17;;;13.90;99.90;;;;;;5083410;28;20803;-79
2021/09/19 02:34:35;;;;;;;13.50;9.73;;;13.90;99.90;;;;;;5084657;28;20756;-79
2021/09/19 02:37:02;;;;;;;12.00;9.80;;;13.90;99.90;;;;;;5074896;28;20430;-79
2021/09/19 02:39:29;;;;;;;12.47;10.80;;;13.80;99.90;;;;;;5077753;28;20798;-80
2021/09/19 02:41:56;;;;;;;20.50;10.47;;;13.80;99.90;;;;;;5089845;28;20425;-80
2021/09/19 02:44:23;;;;;;;12.60;10.63;;;13.80;99.90;;;;;;5096805;28;20442;-80
2021/09/19 02:46:50;;;;;;;13.00;10.97;;;13.80;99.90;;;;;;5096960;28;20542;-80
2021/09/19 02:49:17;;;;;;;11.70;9.20;;;13.80;99.90;;;;;;5095513;28;20495;-79
2021/09/19 02:51:45;;;;;;;11.97;9.80;;;13.80;99.90;;;;;;5085388;28;20805;-80
2021/09/19 02:54:12;;;;;;;13.20;10.40;;;13.80;99.90;;;;;;5098270;28;20474;-80
2021/09/19 02:56:39;;;;;;;11.37;9.97;;;13.70;99.90;;;;;;5082413;28;20454;-80
2021/09/19 02:59:06;;;;;;;15.83;10.00;;;13.60;99.90;;;;;;5076640;28;20528;-80
2021/09/19 03:01:33;;;;;;;12.00;10.23;;;13.60;99.90;;;;;;5087003;28;20502;-79
2021/09/19 03:03:59;;;;;;;13.30;9.10;;;13.50;99.90;;;;;;5096845;28;20446;-80
2021/09/19 03:06:26;;;;;;;12.07;9.97;;;13.50;99.90;;;;;;5097103;28;20461;-80
2021/09/19 03:08:55;;;;;;;12.60;10.70;;;13.40;99.90;;;;;;5086320;23;20972;-74
2021/09/19 03:11:21;;;;;;;12.90;10.10;;;13.40;99.90;;;;;;5050411;28;20858;-74
2021/09/19 03:13:48;;;;;;;12.47;9.47;;;13.30;99.90;;;;;;5052224;28;20458;-75
2021/09/19 03:16:15;;;;;;;11.40;9.80;;;13.30;99.90;;;;;;5050069;28;20471;-75
2021/09/19 03:18:42;;;;;;;12.40;10.50;;;13.30;99.90;;;;;;5057807;28;20472;-75
2021/09/19 03:21:09;;;;;;;12.80;10.07;;;13.20;99.90;;;;;;5064956;28;20459;-76
2021/09/19 03:23:35;;;;;;;11.13;9.93;;;13.20;99.90;;;;;;5063177;28;20788;-76
2021/09/19 03:26:04;;;;;;;12.80;9.90;;;13.20;99.90;;;;;;5064264;28;20495;-76
2021/09/19 03:28:31;;;;;;;11.40;10.17;;;13.20;99.90;;;;;;5052008;28;20451;-76
2021/09/19 03:30:58;;;;;;;14.23;10.00;;;13.20;99.90;;;;;;5052004;28;20531;-76
2021/09/19 03:33:24;;;;;;;12.57;9.00;;;13.20;99.90;;;;;;5051291;28;20465;-76
2021/09/19 03:35:51;;;;;;;13.03;9.93;;;13.30;99.90;;;;;;5052210;28;20801;-76
2021/09/19 03:38:18;;;;;;;12.60;8.60;;;13.30;99.90;;;;;;5052143;28;20426;-76
2021/09/19 03:40:45;;;;;;;11.93;9.80;;;13.30;99.90;;;;;;5060320;28;20771;-76
2021/09/19 03:43:13;;;;;;;11.67;8.93;;;13.30;99.90;;;;;;5054510;28;20431;-75
2021/09/19 03:45:43;;;;;;;11.87;8.70;;;13.30;99.90;;;;;;5064276;28;20447;-75
2021/09/19 03:48:10;;;;;;;10.30;8.53;;;13.30;99.90;;;;;;5071397;28;20440;-75
2021/09/19 03:50:38;;;;;;;10.93;9.00;;;13.40;99.90;;;;;;5065666;28;20423;-75
2021/09/19 03:53:05;;;;;;;14.77;9.10;;;13.30;99.90;;;;;;5067282;28;20463;-75
2021/09/19 03:55:32;;;;;;;11.47;9.30;;;13.20;99.90;;;;;;5058420;28;20492;-75
2021/09/19 03:58:00;;;;;;;11.10;9.60;;;13.20;99.90;;;;;;5051486;28;20721;-76
2021/09/19 04:00:29;;;;;;;11.37;9.57;;;13.10;99.90;;;;;;5055344;28;20960;-74
2021/09/19 04:02:56;;;;;;;12.90;10.20;;;13.10;99.90;;;;;;5069727;28;20452;-75
2021/09/19 04:05:22;;;;;;;10.87;9.13;;;13.00;99.90;;;;;;5071309;28;20418;-75
2021/09/19 04:07:49;;;;;;;12.00;9.43;;;13.00;99.90;;;;;;5067295;28;20463;-74
2021/09/19 04:10:16;;;;;;;11.40;10.03;;;13.10;99.90;;;;;;5065183;28;20455;-76
2021/09/19 04:12:43;;;;;;;11.60;9.50;;;13.10;99.90;;;;;;5068213;28;20463;-75
2021/09/19 04:15:12;;;;;;;9.63;7.90;;;13.20;99.90;;;;;;5070966;28;20457;-75
2021/09/19 04:17:40;;;;;;;11.90;8.60;;;13.10;99.90;;;;;;5071192;28;20946;-75
2021/09/19 04:20:08;;;;;;;13.17;9.47;;;13.10;99.90;;;;;;5067581;28;20487;-75
2021/09/19 04:22:35;;;;;;;12.87;10.47;;;13.10;99.90;;;;;;5064687;28;20458;-75
2021/09/19 04:25:01;;;;;;;10.77;8.97;;;13.10;99.90;;;;;;5061414;28;20431;-75
2021/09/19 04:27:28;;;;;;;10.30;8.80;;;13.10;99.90;;;;;;5051242;28;20448;-75
2021/09/19 04:29:55;;;;;;;10.40;9.13;;;13.10;99.90;;;;;;5051003;28;20447;-75
2021/09/19 04:32:22;;;;;;;10.03;8.80;;;13.10;99.90;;;;;;5051920;28;20812;-75
2021/09/19 04:34:50;;;;;;;13.00;9.07;;;13.00;99.90;;;;;;5053816;28;20463;-75
2021/09/19 04:37:18;;;;;;;10.33;8.73;;;13.00;99.90;;;;;;5071410;28;20914;-75
2021/09/19 04:39:45;;;;;;;12.00;9.90;;;13.00;99.90;;;;;;5060206;28;20814;-75
2021/09/19 04:42:13;;;;;;;13.10;10.53;;;13.00;99.90;;;;;;5061611;28;20445;-75
2021/09/19 04:44:40;;;;;;;10.23;8.17;;;13.00;99.90;;;;;;5064139;28;20448;-75
2021/09/19 04:47:08;;;;;;;16.90;9.50;;;12.90;99.90;;;;;;5054657;28;20467;-75
2021/09/19 04:49:34;;;;;;;14.97;9.60;;;12.80;99.90;;;;;;5061196;28;20446;-75
2021/09/19 04:52:03;;;;;;;11.20;9.00;;;12.80;99.90;;;;;;5061346;28;20449;-75
2021/09/19 04:54:30;;;;;;;10.77;9.40;;;12.80;99.90;;;;;;5057749;28;20476;-75
2021/09/19 04:56:57;;;;;;;11.43;8.20;;;12.90;99.90;;;;;;5063428;28;20463;-76
2021/09/19 04:59:23;;;;;;;9.57;8.57;;;12.90;99.90;;;;;;5053621;28;20476;-75
2021/09/19 05:01:51;;;;;;;17.10;9.97;;;12.90;99.90;;;;;;5066767;28;20951;-75
2021/09/19 05:04:18;;;;;;;12.93;9.10;;;12.80;99.90;;;;;;5055774;28;20424;-75
2021/09/19 05:06:45;;;;;;;9.40;7.90;;;12.80;99.90;;;;;;5055870;28;20448;-76
2021/09/19 05:09:13;;;;;;;10.43;9.10;;;12.80;99.90;;;;;;5053958;28;20975;-75
2021/09/19 05:11:40;;;;;;;12.90;8.70;;;12.80;99.90;;;;;;5058946;28;20458;-75
2021/09/19 05:14:07;;;;;;;10.83;8.73;;;12.70;99.90;;;;;;5054351;28;20550;-75
2021/09/19 05:16:34;;;;;;;10.23;9.10;;;12.70;99.90;;;;;;5074015;28;20451;-75
2021/09/19 05:19:01;;;;;;;10.80;8.90;;;12.70;99.90;;;;;;5071914;28;20892;-75
2021/09/19 05:21:27;;;;;;;11.33;9.50;;;12.70;99.90;;;;;;5059080;28;20449;-75
2021/09/19 05:23:54;;;;;;;10.40;8.83;;;12.70;99.90;;;;;;5072239;28;20458;-75
2021/09/19 05:26:22;;;;;;;12.30;8.17;;;12.70;99.90;;;;;;5057094;28;20535;-75
2021/09/19 05:28:49;;;;;;;11.50;9.20;;;12.80;99.90;;;;;;5054375;28;20780;-75
2021/09/19 05:31:16;;;;;;;13.50;9.47;;;12.80;99.90;;;;;;5054351;28;20419;-75
2021/09/19 05:33:45;;;;;;;11.17;8.60;;;12.80;99.90;;;;;;5053734;28;20650;-75
2021/09/19 05:36:12;;;;;;;9.67;8.47;;;12.70;99.90;;;;;;5054807;28;20477;-75
2021/09/19 05:38:39;;;;;;;12.80;8.90;;;12.70;99.90;;;;;;5054361;28;20475;-74
2021/09/19 05:41:06;;;;;;;10.03;8.60;;;12.70;99.90;;;;;;5053787;28;20480;-75
2021/09/19 05:43:34;;;;;;;9.37;8.10;;;12.60;99.90;;;;;;5052785;28;20479;-75
2021/09/19 05:46:02;;;;;;;10.33;8.80;;;12.60;99.90;;;;;;5052921;28;20419;-75
2021/09/19 05:48:29;;;;;;;10.43;9.00;;;12.60;99.90;;;;;;5053643;28;20484;-75
2021/09/19 05:50:56;;;;;;;12.40;10.27;;;12.60;99.90;;;;;;5054149;28;20449;-75
2021/09/19 05:53:23;;;;;;;11.30;9.70;;;12.60;99.90;;;;;;5050111;28;20437;-75
2021/09/19 05:55:50;;;;;;;10.57;9.23;;;12.50;99.90;;;;;;5047952;28;20568;-75
2021/09/19 05:58:17;;;;;;;11.00;9.17;;;12.50;99.90;;;;;;5048878;28;20419;-75
2021/09/19 06:00:45;;;;;;;8.83;7.93;;;12.50;99.90;;;;;;5054182;28;20456;-75
2021/09/19 06:03:12;;;;;;;10.93;8.80;;;12.60;99.90;;;;;;5051939;28;20809;-75
2021/09/19 06:05:39;;;;;;;10.87;9.20;;;12.70;99.90;;;;;;5052878;28;20464;-76
2021/09/19 06:08:06;;;;;;;10.83;9.33;;;12.80;99.90;;;;;;5067773;28;20418;-75
2021/09/19 06:10:33;;;;;;;12.63;8.73;;;12.70;99.90;;;;;;5064631;28;20450;-75
2021/09/19 06:13:00;;;;;;;10.30;8.97;;;12.80;99.90;;;;;;5041240;28;20431;-76
2021/09/19 06:15:26;;;;;;;11.40;9.63;;;12.70;99.90;;;;;;5056183;28;20454;-80
2021/09/19 06:17:55;;;;;;;13.13;9.97;;;12.80;99.90;;;;;;5048001;28;20460;-84
2021/09/19 06:20:21;;;;;;;15.07;11.30;;;12.80;99.90;;;;;;5047849;28;21937;-80
2021/09/19 06:22:48;;;;;;;11.57;10.27;;;12.70;99.90;;;;;;5043108;28;20590;-85
2021/09/19 06:25:15;;;;;;;12.30;10.40;;;12.80;99.90;;;;;;5039676;28;20444;-81
2021/09/19 06:27:42;;;;;;;13.37;11.30;;;12.80;99.90;;;;;;5047291;28;20436;-86
2021/09/19 06:30:11;;;;;;;12.40;10.80;;;12.90;99.90;;;;;;5054770;28;20453;-84
2021/09/19 06:32:38;;;;;;;13.03;10.90;;;13.00;99.90;;;;;;5045296;28;20515;-81
2021/09/19 06:35:07;;;;;;;15.40;11.90;;;13.10;99.90;;;;;;5051105;28;20934;-86
2021/09/19 06:37:34;;;;;;;14.53;11.17;;;13.30;99.90;;;;;;5062221;28;20448;-82
2021/09/19 06:40:01;;;;;;;14.07;12.57;;;13.40;99.90;;;;;;5071603;28;21019;-82
2021/09/19 06:42:28;;;;;;;12.47;10.37;;;13.60;99.90;;;;;;5066861;28;20736;-80
2021/09/19 06:44:55;;;;;;;13.50;11.47;;;13.60;99.90;;;;;;5037833;28;20549;-81
2021/09/19 06:47:21;;;;;;;14.30;12.80;;;13.70;99.90;;;;;;5038147;28;20453;-83
2021/09/19 06:49:48;;;;;;;14.13;10.67;;;13.70;99.90;;;;;;5050224;28;20484;-82
2021/09/19 06:52:16;;;;;;;15.80;12.47;;;13.80;99.90;;;;;;5077471;28;20426;-81
2021/09/19 06:54:43;;;;;;;13.43;11.17;;;13.80;99.90;;;;;;5059968;28;20990;-81
2021/09/19 06:57:11;;;;;;;12.83;11.43;;;13.90;99.90;;;;;;5065465;28;20435;-84
2021/09/19 06:59:37;;;;;;;13.63;10.97;;;13.90;99.90;;;;;;5072948;28;20450;-81
2021/09/19 07:02:04;;;;;;;12.77;11.47;;;13.90;99.90;;;;;;5058907;28;20449;-82
2021/09/19 07:04:31;;;;;;;12.20;10.80;;;14.00;99.90;;;;;;5059176;28;20518;-83
2021/09/19 07:06:58;;;;;;;16.33;12.37;;;14.00;99.90;;;;;;5063543;28;20415;-83
2021/09/19 07:09:26;;;;;;;12.90;10.77;;;14.10;99.90;;;;;;5074746;28;20654;-83
2021/09/19 07:11:53;;;;;;;11.80;10.57;;;14.20;99.90;;;;;;5078748;28;20958;-83
2021/09/19 07:14:20;;;;;;;12.83;10.57;;;14.30;99.90;;;;;;5046921;28;20424;-82
2021/09/19 07:16:46;;;;;;;10.80;8.80;;;14.40;99.90;;;;;;5072863;28;20986;-82
2021/09/19 07:19:13;;;;;;;10.33;8.47;;;14.50;99.90;;;;;;5071886;28;20473;-79
2021/09/19 07:21:40;;;;;;;10.57;8.80;;;14.60;99.90;;;;;;5068290;28;20514;-79
2021/09/19 07:24:07;;;;;;;11.07;9.87;;;14.70;99.90;;;;;;5060276;28;20448;-82
2021/09/19 07:26:35;;;;;;;9.77;8.60;;;14.70;99.90;;;;;;5062531;28;20796;-78
2021/09/19 07:29:02;;;;;;;11.00;9.07;;;14.70;99.90;;;;;;5054924;28;20473;-79
2021/09/19 07:31:29;;;;;;;11.00;8.23;;;14.80;99.90;;;;;;5069320;28;20477;-80
2021/09/19 07:33:57;;;;;;;9.93;8.30;;;14.90;99.90;;;;;;5074142;28;20470;-81
2021/09/19 07:36:31;;;;;;;10.90;8.30;;;14.90;99.90;;;;;;5058036;28;20552;-81
2021/09/19 07:39:00;;;;;;;9.80;8.20;;;15.10;99.90;;;;;;5057381;28;20504;-79
2021/09/19 07:41:28;;;;;;;11.50;8.90;;;15.00;99.90;;;;;;5065159;28;20854;-80
2021/09/19 07:43:57;;;;;;;9.80;7.73;;;14.90;99.90;;;;;;5067600;28;20427;-80
2021/09/19 07:46:24;;;;;;;10.20;8.13;;;15.00;99.90;;;;;;5056891;28;20786;-83
2021/09/19 07:48:51;;;;;;;9.23;8.33;;;15.10;99.90;;;;;;5058945;28;20503;-82
2021/09/19 07:51:19;;;;;;;10.33;8.40;;;15.10;99.90;;;;;;5068935;28;20433;-83
2021/09/19 07:53:48;;;;;;;10.77;7.27;;;15.20;99.90;;;;;;5076702;28;20808;-79
2021/09/19 07:56:14;;;;;;;10.20;7.70;;;15.20;99.90;;;;;;5076855;28;20487;-80
2021/09/19 07:58:41;;;;;;;8.53;7.20;;;15.30;99.90;;;;;;5074018;28;20476;-82
2021/09/19 08:01:10;;;;;;;9.70;7.73;;;15.40;99.90;;;;;;5064754;28;20428;-79
2021/09/19 08:03:36;;;;;;;8.37;7.47;;;15.40;99.90;;;;;;5054337;28;20403;-80
2021/09/19 08:06:03;;;;;;;9.30;7.70;;;15.40;99.90;;;;;;5059588;28;20522;-84
2021/09/19 08:08:30;;;;;;;7.23;6.03;;;15.50;99.90;;;;;;5057140;28;20478;-85
2021/09/19 08:10:57;;;;;;;7.87;7.07;;;15.60;99.90;;;;;;5073606;28;20515;-86
2021/09/19 08:13:24;;;;;;;9.30;7.17;;;15.70;99.90;;;;;;5077981;28;20426;-83
2021/09/19 08:15:51;;;;;;;9.10;7.93;;;15.70;99.90;;;;;;5035537;28;20803;-83
2021/09/19 08:18:19;;;;;;;10.33;7.17;;;15.80;99.90;;;;;;5045573;28;20446;-83
2021/09/19 08:20:47;;;;;;;9.00;6.70;;;16.00;99.90;;;;;;5052149;28;20422;-85
2021/09/19 08:23:14;;;;;;;9.23;7.70;;;16.10;99.90;;;;;;5080270;28;20433;-83
2021/09/19 08:25:41;;;;;;;7.97;6.60;;;16.20;99.90;;;;;;5056758;28;20424;-83
2021/09/19 08:28:08;;;;;;;6.97;6.20;;;16.20;99.90;;;;;;5067102;28;20464;-83
2021/09/19 08:30:34;;;;;;;8.10;6.60;;;16.40;99.90;;;;;;5070961;28;20490;-81
2021/09/19 08:33:01;;;;;;;7.87;6.90;;;16.30;99.90;;;;;;5064698;28;20547;-81
2021/09/19 08:35:30;;;;;;;11.70;7.70;;;16.30;99.90;;;;;;5058342;28;20566;-80
2021/09/19 08:37:57;;;;;;;7.77;6.20;;;16.30;99.90;;;;;;5058497;28;20450;-80
2021/09/19 08:40:24;;;;;;;7.87;6.27;;;16.40;99.90;;;;;;5047702;28;20496;-81
2021/09/19 08:42:54;;;;;;;8.47;6.90;;;16.60;99.90;;;;;;5069769;28;20431;-87
2021/09/19 08:45:21;;;;;;;9.33;7.33;;;16.80;99.90;;;;;;5058547;28;20437;-83
2021/09/19 08:47:49;;;;;;;7.80;6.37;;;16.80;99.90;;;;;;5044915;28;20469;-82
2021/09/19 08:50:16;;;;;;;6.90;5.40;;;16.70;99.90;;;;;;5059092;28;20547;-80
2021/09/19 08:52:45;;;;;;;6.37;5.50;;;16.80;99.90;;;;;;5057607;28;20547;-81
2021/09/19 08:55:12;;;;;;;10.87;6.20;;;16.90;99.90;;;;;;5058052;28;20553;-81
2021/09/19 08:57:39;;;;;;;8.87;6.87;;;16.90;99.90;;;;;;5072528;28;20427;-81
2021/09/19 09:00:10;;;;;;;7.90;5.90;;;17.10;99.90;;;;;;5076470;28;21007;-81
2021/09/19 09:02:48;;;;;;;7.37;6.23;;;17.10;99.90;;;;;;5055712;28;20506;-81
2021/09/19 09:05:20;;;;;;;6.63;5.83;;;17.10;99.90;;;;;;5056165;28;20798;-81
2021/09/19 09:07:51;;;;;;;7.97;6.40;;;17.20;99.90;;;;;;5059090;28;20945;-82
2021/09/19 09:10:29;;;;;;;7.23;6.10;;;17.30;99.90;;;;;;5090778;23;20474;-79
2021/09/19 09:13:00;;;;;;;6.43;5.60;;;17.40;99.90;;;;;;5075391;28;20444;-80
2021/09/19 09:15:33;;;;;;;7.50;6.57;;;17.50;99.90;;;;;;5074762;28;20519;-80
2021/09/19 09:18:04;;;;;;;7.73;6.50;;;17.50;99.90;;;;;;5075647;28;20460;-80
2021/09/19 09:20:53;;;;;;;9.40;5.63;;;17.70;99.90;;;;;;5088475;28;20476;-80
2021/09/19 09:23:30;;;;;;;8.60;5.87;;;17.70;99.90;;;;;;5058139;28;20514;-80
2021/09/19 09:26:18;;;;;;;7.00;6.20;;;17.80;99.90;;;;;;5097525;28;20416;-81
2021/09/19 09:28:47;;;;;;;6.80;5.80;;;17.90;99.90;;;;;;5099502;28;20434;-80
2021/09/19 09:31:19;;;;;;;6.60;5.43;;;18.00;99.90;;;;;;5090495;28;20426;-78
2021/09/19 09:34:01;;;;;;;7.60;6.40;;;18.00;99.90;;;;;;5083798;28;20408;-80
2021/09/19 09:36:34;;;;;;;7.73;5.73;;;17.80;99.90;;;;;;5082911;28;20472;-80
2021/09/19 09:39:20;;;;;;;7.20;6.23;;;17.70;99.90;;;;;;5087848;28;20451;-78
2021/09/19 09:41:47;;;;;;;7.53;6.50;;;17.70;99.90;;;;;;5082817;28;20504;-79
2021/09/19 09:44:38;;;;;;;7.13;5.97;;;17.80;99.90;;;;;;5078660;28;20460;-80
2021/09/19 09:47:08;;;;;;;9.80;6.80;;;18.00;99.90;;;;;;5078025;28;20519;-80
2021/09/19 09:49:47;;;;;;;8.83;6.03;;;18.10;99.90;;;;;;5077841;28;20439;-80
2021/09/19 09:52:19;;;;;;;6.10;5.40;;;18.30;99.90;;;;;;5083969;28;20515;-80
2021/09/19 09:54:53;;;;;;;6.97;6.27;;;18.40;99.90;;;;;;5076401;28;20441;-80
2021/09/19 09:57:46;;;;;;;7.60;5.97;;;18.40;99.90;;;;;;5079591;28;20477;-80
2021/09/19 10:00:15;;;;;;;7.57;6.00;;;18.40;99.90;;;;;;5097175;28;20473;-80
2021/09/19 10:02:43;;;;;;;8.13;6.20;;;18.50;99.90;;;;;;5077697;28;20448;-80
2021/09/19 10:05:13;;;;;;;9.23;7.00;;;18.60;99.90;;;;;;5078507;28;20486;-81
2021/09/19 10:07:42;;;;;;;10.20;6.60;;;18.70;99.90;;;;;;5078962;28;20452;-79
2021/09/19 10:10:13;;;;;;;8.20;6.63;;;18.80;99.90;;;;;;5077679;28;20505;-79
2021/09/19 10:12:41;;;;;;;8.30;6.93;;;18.70;99.90;;;;;;5081213;28;20460;-77
2021/09/19 10:15:09;;;;;;;9.10;7.43;;;18.70;99.90;;;;;;5087251;28;20423;-79
2021/09/19 10:17:36;;;;;;;7.93;6.90;;;18.70;99.90;;;;;;5084534;28;20574;-80
2021/09/19 10:20:05;;;;;;;20.97;6.33;;;18.70;99.90;;;;;;5100845;28;20574;-78
2021/09/19 10:22:34;;;;;;;6.80;5.97;;;18.80;99.90;;;;;;5094792;28;20423;-79
2021/09/19 10:25:01;;;;;;;8.10;6.67;;;18.90;99.90;;;;;;5078009;28;20433;-79
2021/09/19 10:27:33;;;;;;;8.07;6.20;;;19.00;99.90;;;;;;5058803;28;20460;-79
2021/09/19 10:30:02;;;;;;;7.20;6.30;;;19.10;99.90;;;;;;5065404;28;20455;-80
2021/09/19 10:32:34;;;;;;;10.27;7.17;;;19.00;99.90;;;;;;5097919;28;20483;-80
2021/09/19 10:35:01;;;;;;;9.53;6.80;;;19.00;99.90;;;;;;5099179;28;20871;-80
2021/09/19 10:37:49;;;;;;;7.80;6.67;;;19.10;99.90;;;;;;5100300;28;20507;-78
2021/09/19 10:40:30;;;;;;;8.20;6.80;;;19.10;99.90;;;;;;5084872;28;20841;-80
2021/09/19 10:42:58;;;;;;;8.20;7.10;;;19.10;99.90;;;;;;5078155;28;20494;-79
2021/09/19 10:45:37;;;;;;;9.80;6.70;;;19.10;99.90;;;;;;5077339;28;20427;-80
2021/09/19 10:48:15;;;;;;;7.80;6.50;;;19.10;99.90;;;;;;5081099;28;20452;-80
2021/09/19 10:50:43;;;;;;;7.50;6.67;;;19.20;99.90;;;;;;5083296;28;20528;-80
2021/09/19 10:53:28;;;;;;;9.10;7.27;;;19.30;99.90;;;;;;5098417;28;20459;-80
2021/09/19 10:55:57;;;;;;;9.13;6.13;;;19.50;99.90;;;;;;5092148;28;20444;-80
2021/09/19 10:58:28;;;;;;;8.90;6.90;;;19.40;99.90;;;;;;5075977;28;20558;-81
2021/09/19 11:01:13;;;;;;;9.57;6.73;;;19.40;99.90;;;;;;5079638;28;20570;-79
2021/09/19 11:03:41;;;;;;;7.30;6.40;;;19.40;99.90;;;;;;5083290;28;20447;-80
2021/09/19 11:06:22;;;;;;;9.37;7.43;;;19.50;99.90;;;;;;5077959;28;20494;-80
2021/09/19 11:08:49;;;;;;;8.60;7.13;;;19.50;99.90;;;;;;5077081;28;20487;-80
2021/09/19 11:11:25;;;;;;;8.07;7.20;;;19.70;99.90;;;;;;5086957;28;20761;-78
2021/09/19 11:14:04;;;;;;;8.17;7.00;;;19.80;99.90;;;;;;5091205;28;20420;-79
2021/09/19 11:16:37;;;;;;;7.00;6.13;;;19.80;99.90;;;;;;5080390;28;20565;-78
2021/09/19 11:19:06;;;;;;;8.60;6.80;;;19.90;99.90;;;;;;5079229;28;20515;-80
2021/09/19 11:21:47;;;;;;;8.57;7.17;;;20.00;99.90;;;;;;5077585;28;20540;-80
2021/09/19 11:24:17;;;;;;;7.07;6.17;;;20.10;99.90;;;;;;5077873;28;20769;-80
2021/09/19 11:26:56;;;;;;;10.47;7.63;;;20.00;99.90;;;;;;5078847;28;20864;-80
2021/09/19 11:29:28;;;;;;;8.27;6.23;;;20.00;99.90;;;;;;5076953;28;20835;-79
2021/09/19 11:31:58;;;;;;;6.73;5.73;;;20.00;99.90;;;;;;5075630;28;20489;-79
2021/09/19 11:34:26;;;;;;;7.20;6.00;;;20.10;99.90;;;;;;5076798;28;20454;-79
2021/09/19 11:36:55;;;;;;;7.93;7.13;;;20.20;99.90;;;;;;5076178;28;20554;-80
2021/09/19 11:39:23;;;;;;;8.70;5.77;;;20.00;99.90;;;;;;5077058;28;20450;-79
2021/09/19 11:41:51;;;;;;;9.50;8.20;;;20.20;99.90;;;;;;5088421;28;20802;-79
2021/09/19 11:44:19;;;;;;;7.70;6.90;;;20.20;99.90;;;;;;5095975;28;20458;-79
2021/09/19 11:46:49;;;;;;;7.57;6.77;;;20.20;99.90;;;;;;5085699;28;20541;-78
2021/09/19 11:49:17;;;;;;;19.93;12.23;;;20.30;99.90;;;;;;5074863;28;20469;-79
2021/09/19 11:51:45;;;;;;;10.07;7.87;;;20.30;99.90;;;;;;5075853;28;20454;-80
2021/09/19 11:54:14;;;;;;;10.30;7.10;;;20.20;99.90;;;;;;5076648;28;20455;-80
2021/09/19 11:56:43;;;;;;;7.33;6.53;;;20.30;99.90;;;;;;5076422;28;20457;-80
2021/09/19 11:59:12;;;;;;;6.50;4.10;;;20.30;99.90;;;;;;5076521;28;20511;-79
2021/09/19 12:01:41;;;;;;;7.63;6.63;;;20.20;99.90;;;;;;5094224;28;20424;-78
2021/09/19 12:04:10;;;;;;;7.83;6.37;;;20.10;99.90;;;;;;5078597;28;20922;-79
2021/09/19 12:06:38;;;;;;;9.17;7.17;;;20.20;99.90;;;;;;5076308;28;20430;-80
2021/09/19 12:09:10;;;;;;;8.90;7.17;;;20.30;99.90;;;;;;5082089;28;20501;-80
2021/09/19 12:11:45;;;;;;;8.07;6.90;;;20.40;99.90;;;;;;5087418;28;20413;-80
2021/09/19 12:14:16;;;;;;;9.90;7.70;;;20.60;99.90;;;;;;5081180;28;20454;-80
2021/09/19 12:16:55;;;;;;;8.33;6.60;;;20.70;99.90;;;;;;5057989;28;20558;-80
2021/09/19 12:19:23;;;;;;;7.40;6.10;;;20.70;99.90;;;;;;5074938;28;20471;-80
2021/09/19 12:21:57;;;;;;;8.90;7.10;;;20.90;99.90;;;;;;5076489;28;20452;-82
2021/09/19 12:24:25;;;;;;;8.30;6.50;;;20.90;99.90;;;;;;5074926;28;20458;-81
2021/09/19 12:26:52;;;;;;;7.23;6.17;;;21.00;99.90;;;;;;5080391;28;20539;-81
2021/09/19 12:29:21;;;;;;;6.83;5.10;;;21.20;99.90;;;;;;5080447;28;20486;-80
2021/09/19 12:31:50;;;;;;;10.83;6.17;;;21.40;99.90;;;;;;5079595;28;20464;-78
2021/09/19 12:34:20;;;;;;;7.27;5.90;;;21.60;99.90;;;;;;5079389;28;20452;-80
2021/09/19 12:36:50;;;;;;;8.40;6.53;;;21.50;99.90;;;;;;5079038;28;20450;-88
2021/09/19 12:39:22;;;;;;;7.77;6.43;;;21.30;99.90;;;;;;5088998;28;20477;-78
2021/09/19 12:41:51;;;;;;;7.10;5.67;;;21.00;99.90;;;;;;5099944;28;20434;-79
2021/09/19 12:44:20;;;;;;;8.03;6.43;;;20.80;99.90;;;;;;5100542;28;20450;-81
2021/09/19 12:46:49;;;;;;;6.43;5.73;;;20.80;99.90;;;;;;5098608;28;20441;-81